Map

Track Data

SID SEASON NUMBER BASIN SUBBASIN NAME ISO_TIME NATURE LAT LON WMO_WIND WMO_PRES WMO_AGENCY TRACK_TYPE DIST2LAND LANDFALL IFLAG USA_AGENCY USA_ATCF_ID USA_LAT USA_LON USA_RECORD USA_STATUS USA_WIND USA_PRES USA_SSHS USA_R34_NE USA_R34_SE USA_R34_SW USA_R34_NW USA_R50_NE USA_R50_SE USA_R50_SW USA_R50_NW USA_R64_NE USA_R64_SE USA_R64_SW USA_R64_NW USA_POCI USA_ROCI USA_RMW USA_EYE TOKYO_LAT TOKYO_LON TOKYO_GRADE TOKYO_WIND TOKYO_PRES TOKYO_R50_DIR TOKYO_R50_LONG TOKYO_R50_SHORT TOKYO_R30_DIR TOKYO_R30_LONG TOKYO_R30_SHORT TOKYO_LAND CMA_LAT CMA_LON CMA_CAT CMA_WIND CMA_PRES HKO_LAT HKO_LON HKO_CAT HKO_WIND HKO_PRES NEWDELHI_LAT NEWDELHI_LON NEWDELHI_GRADE NEWDELHI_WIND NEWDELHI_PRES NEWDELHI_CI NEWDELHI_DP NEWDELHI_POCI REUNION_LAT REUNION_LON REUNION_TYPE REUNION_WIND REUNION_PRES REUNION_TNUM REUNION_CI REUNION_RMW REUNION_R34_NE REUNION_R34_SE REUNION_R34_SW REUNION_R34_NW REUNION_R50_NE REUNION_R50_SE REUNION_R50_SW REUNION_R50_NW REUNION_R64_NE REUNION_R64_SE REUNION_R64_SW REUNION_R64_NW BOM_LAT BOM_LON BOM_TYPE BOM_WIND BOM_PRES BOM_TNUM BOM_CI BOM_RMW BOM_R34_NE BOM_R34_SE BOM_R34_SW BOM_R34_NW BOM_R50_NE BOM_R50_SE BOM_R50_SW BOM_R50_NW BOM_R64_NE BOM_R64_SE BOM_R64_SW BOM_R64_NW BOM_ROCI BOM_POCI BOM_EYE BOM_POS_METHOD BOM_PRES_METHOD NADI_LAT NADI_LON NADI_CAT NADI_WIND NADI_PRES WELLINGTON_LAT WELLINGTON_LON WELLINGTON_WIND WELLINGTON_PRES DS824_LAT DS824_LON DS824_STAGE DS824_WIND DS824_PRES TD9636_LAT TD9636_LON TD9636_STAGE TD9636_WIND TD9636_PRES TD9635_LAT TD9635_LON TD9635_WIND TD9635_PRES TD9635_ROCI NEUMANN_LAT NEUMANN_LON NEUMANN_CLASS NEUMANN_WIND NEUMANN_PRES MLC_LAT MLC_LON MLC_CLASS MLC_WIND MLC_PRES USA_GUST BOM_GUST BOM_GUST_PER REUNION_GUST REUNION_GUST_PER USA_SEAHGT USA_SEARAD_NE USA_SEARAD_SE USA_SEARAD_SW USA_SEARAD_NW STORM_SPEED STORM_DIR
1895286N19266 1895 42 NA GM NOT_NAMED 1895-10-13 06:00:00 TS 19.4000 -93.7000 35 hurdat_atl main 123 123 O_____________ hurdat_atl AL061895 19.4000 -93.7000 TS 35 0 9 49
1895286N19266 1895 42 NA GM NOT_NAMED 1895-10-13 09:00:00 TS 19.7002 -93.3403 main 138 138 P_____________ AL061895 19.7002 -93.3403 TS 35 0 9 48
1895286N19266 1895 42 NA GM NOT_NAMED 1895-10-13 12:00:00 TS 20.0000 -93.0000 35 hurdat_atl main 159 158 O_____________ hurdat_atl AL061895 20.0000 -93.0000 TS 35 0 9 45
1895286N19266 1895 42 NA GM NOT_NAMED 1895-10-13 15:00:00 TS 20.2999 -92.6924 main 190 190 P_____________ AL061895 20.2999 -92.6924 TS 35 0 8 43
1895286N19266 1895 42 NA GM NOT_NAMED 1895-10-13 18:00:00 TS 20.6000 -92.4000 35 hurdat_atl main 198 172 O_____________ hurdat_atl AL061895 20.6000 -92.4000 TS 35 0 8 42
1895286N19266 1895 42 NA GM NOT_NAMED 1895-10-13 21:00:00 TS 20.9074 -92.1074 main 172 152 P_____________ AL061895 20.9074 -92.1074 TS 35 0 8 43
1895286N19266 1895 42 NA GM NOT_NAMED 1895-10-14 00:00:00 TS 21.2000 -91.8000 35 hurdat_atl main 152 128 O_____________ hurdat_atl AL061895 21.2000 -91.8000 TS 35 0 8 48
1895286N19266 1895 42 NA GM NOT_NAMED 1895-10-14 03:00:00 TS 21.4575 -91.4574 main 132 106 P_____________ AL061895 21.4575 -91.4574 TS 35 0 8 53
1895286N19266 1895 42 NA GM NOT_NAMED 1895-10-14 06:00:00 TS 21.7000 -91.1000 35 hurdat_atl main 106 98 O_____________ hurdat_atl AL061895 21.7000 -91.1000 TS 35 0 8 53
1895286N19266 1895 42 NA GM NOT_NAMED 1895-10-14 09:00:00 TS 21.9574 -90.7499 main 108 105 P_____________ AL061895 21.9574 -90.7499 TS 35 0 8 52
1895286N19266 1895 42 NA GM NOT_NAMED 1895-10-14 12:00:00 TS 22.2000 -90.4000 35 hurdat_atl main 123 119 O_____________ hurdat_atl AL061895 22.2000 -90.4000 TS 35 0 8 55
1895286N19266 1895 42 NA GM NOT_NAMED 1895-10-14 15:00:00 TS 22.3998 -90.0647 main 135 134 P_____________ AL061895 22.3998 -90.0647 TS 35 0 8 58
1895286N19266 1895 42 NA GM NOT_NAMED 1895-10-14 18:00:00 TS 22.6000 -89.7000 35 hurdat_atl main 151 148 O_____________ hurdat_atl AL061895 22.6000 -89.7000 TS 35 0 9 59
1895286N19266 1895 42 NA GM NOT_NAMED 1895-10-14 21:00:00 TS 22.8501 -89.2576 main 172 164 P_____________ AL061895 22.8501 -89.2576 TS 35 0 10 59
1895286N19266 1895 42 NA GM NOT_NAMED 1895-10-15 00:00:00 TS 23.1000 -88.8000 35 hurdat_atl main 180 179 O_____________ hurdat_atl AL061895 23.1000 -88.8000 TS 35 0 9 60
1895286N19266 1895 42 NA GM NOT_NAMED 1895-10-15 03:00:00 TS 23.3072 -88.4072 main 201 201 P_____________ AL061895 23.3072 -88.4072 TS 35 0 8 61
1895286N19266 1895 42 NA GM NOT_NAMED 1895-10-15 06:00:00 TS 23.5000 -88.0000 35 hurdat_atl main 223 223 O_____________ hurdat_atl AL061895 23.5000 -88.0000 TS 35 0 9 64
1895286N19266 1895 42 NA GM NOT_NAMED 1895-10-15 09:00:00 TS 23.6999 -87.5224 main 246 246 P_____________ AL061895 23.6999 -87.5224 TS 35 0 10 66
1895286N19266 1895 42 NA GM NOT_NAMED 1895-10-15 12:00:00 TS 23.9000 -87.0000 35 hurdat_atl main 268 268 O_____________ hurdat_atl AL061895 23.9000 -87.0000 TS 35 0 10 68
1895286N19266 1895 42 NA GM NOT_NAMED 1895-10-15 15:00:00 TS 24.0922 -86.4722 main 289 263 P_____________ AL061895 24.0922 -86.4722 TS 35 0 11 68
1895286N19266 1895 42 NA GM NOT_NAMED 1895-10-15 18:00:00 TS 24.3000 -85.9000 35 hurdat_atl main 263 240 O_____________ hurdat_atl AL061895 24.3000 -85.9000 TS 35 0 12 67
1895286N19266 1895 42 NA GM NOT_NAMED 1895-10-15 21:00:00 TS 24.5498 -85.2725 main 240 235 P_____________ AL061895 24.5498 -85.2725 TS 35 0 13 67
1895286N19266 1895 42 NA GM NOT_NAMED 1895-10-16 00:00:00 TS 24.8000 -84.6000 35 hurdat_atl main 241 237 O_____________ hurdat_atl AL061895 24.8000 -84.6000 TS 35 0 13 70
1895286N19266 1895 42 NA GM NOT_NAMED 1895-10-16 03:00:00 TS 25.0071 -83.9221 main 240 169 P_____________ AL061895 25.0071 -83.9221 TS 35 0 13 72
1895286N19266 1895 42 NA GM NOT_NAMED 1895-10-16 06:00:00 TS 25.2000 -83.2000 35 hurdat_atl main 169 97 O_____________ hurdat_atl AL061895 25.2000 -83.2000 TS 35 0 14 75
1895286N19266 1895 42 NA GM NOT_NAMED 1895-10-16 09:00:00 TS 25.3727 -82.4386 main 89 32 P_____________ AL061895 25.3727 -82.4386 TS 35 0 15 75
1895286N19266 1895 42 NA GM NOT_NAMED 1895-10-16 12:00:00 TS 25.6000 -81.6000 35 hurdat_atl main 32 0 O_____________ hurdat_atl AL061895 25.6000 -81.6000 TS 35 0 16 72
1895286N19266 1895 42 NA GM NOT_NAMED 1895-10-16 13:00:00 TS 25.7000 -81.3000 35 hurdat_atl main 0 0 O_____________ hurdat_atl AL061895 25.7000 -81.3000 L TS 35 0 16 65
1895286N19266 1895 42 NA NA NOT_NAMED 1895-10-16 15:00:00 TS 25.9379 -80.8131 main 0 0 P_____________ AL061895 25.9379 -80.8131 TS 32 -1 15 55
1895286N19266 1895 42 NA NA NOT_NAMED 1895-10-16 18:00:00 TS 26.4000 -80.2000 30 hurdat_atl main 0 0 O_____________ hurdat_atl AL061895 26.4000 -80.2000 TD 30 -1 16 50
1895286N19266 1895 42 NA NA NOT_NAMED 1895-10-16 21:00:00 TS 26.9721 -79.4566 main 54 54 P_____________ AL061895 26.9721 -79.4566 TD 27 -1 19 50
1895286N19266 1895 42 NA NA NOT_NAMED 1895-10-17 00:00:00 TS 27.6000 -78.6000 25 hurdat_atl main 162 O_____________ hurdat_atl AL061895 27.6000 -78.6000 TD 25 -1 20 50

About IBTrACS Database

This database is a web-friendly format of International Best Track Archive for Climate Stewardship (IBTrACS), a global best track data archive curated by NOAA dating back to 1842.

Updated: 2021-10-21